sensor_id;sensor_type;location;lat;lon;timestamp;P1;durP1;ratioP1;P2;durP2;ratioP2
31872;SDS011;22407;42.820;23.374;2023-05-21T00:01:23;12.27;;;6.00;;
31872;SDS011;22407;42.820;23.374;2023-05-21T00:03:49;11.77;;;5.30;;
31872;SDS011;22407;42.820;23.374;2023-05-21T00:06:15;13.20;;;6.50;;
31872;SDS011;22407;42.820;23.374;2023-05-21T00:08:41;12.60;;;5.63;;
31872;SDS011;22407;42.820;23.374;2023-05-21T00:11:07;13.25;;;6.75;;
31872;SDS011;22407;42.820;23.374;2023-05-21T00:13:32;12.55;;;5.60;;
31872;SDS011;22407;42.820;23.374;2023-05-21T00:15:58;10.73;;;5.67;;
31872;SDS011;22407;42.820;23.374;2023-05-21T00:18:23;11.70;;;6.10;;
31872;SDS011;22407;42.820;23.374;2023-05-21T00:20:49;13.50;;;6.43;;
31872;SDS011;22407;42.820;23.374;2023-05-21T00:23:15;11.13;;;5.93;;
31872;SDS011;22407;42.820;23.374;2023-05-21T00:25:43;10.35;;;5.75;;
31872;SDS011;22407;42.820;23.374;2023-05-21T00:28:08;12.43;;;6.45;;
31872;SDS011;22407;42.820;23.374;2023-05-21T00:30:33;11.23;;;6.13;;
31872;SDS011;22407;42.820;23.374;2023-05-21T00:32:59;12.87;;;6.33;;
31872;SDS011;22407;42.820;23.374;2023-05-21T00:35:26;12.73;;;6.57;;
31872;SDS011;22407;42.820;23.374;2023-05-21T00:37:51;11.90;;;6.97;;
31872;SDS011;22407;42.820;23.374;2023-05-21T00:40:17;13.07;;;6.28;;
31872;SDS011;22407;42.820;23.374;2023-05-21T00:42:43;12.07;;;6.27;;
31872;SDS011;22407;42.820;23.374;2023-05-21T00:45:11;13.35;;;6.20;;
31872;SDS011;22407;42.820;23.374;2023-05-21T00:47:38;11.37;;;5.70;;
31872;SDS011;22407;42.820;23.374;2023-05-21T00:50:05;14.50;;;6.35;;
31872;SDS011;22407;42.820;23.374;2023-05-21T00:52:31;11.25;;;6.03;;
31872;SDS011;22407;42.820;23.374;2023-05-21T00:54:57;12.07;;;6.10;;
31872;SDS011;22407;42.820;23.374;2023-05-21T00:57:24;13.30;;;6.32;;
31872;SDS011;22407;42.820;23.374;2023-05-21T00:59:50;12.67;;;5.93;;
31872;SDS011;22407;42.820;23.374;2023-05-21T01:02:15;12.73;;;6.20;;
31872;SDS011;22407;42.820;23.374;2023-05-21T01:04:43;11.98;;;6.55;;
31872;SDS011;22407;42.820;23.374;2023-05-21T01:07:08;12.25;;;6.47;;
31872;SDS011;22407;42.820;23.374;2023-05-21T01:09:34;13.80;;;6.80;;
31872;SDS011;22407;42.820;23.374;2023-05-21T01:11:59;12.40;;;6.20;;
31872;SDS011;22407;42.820;23.374;2023-05-21T01:14:25;12.00;;;6.10;;
31872;SDS011;22407;42.820;23.374;2023-05-21T01:16:50;12.20;;;6.60;;
31872;SDS011;22407;42.820;23.374;2023-05-21T01:19:20;12.17;;;6.40;;
31872;SDS011;22407;42.820;23.374;2023-05-21T01:21:48;12.32;;;6.20;;
31872;SDS011;22407;42.820;23.374;2023-05-21T01:24:14;12.27;;;6.60;;
31872;SDS011;22407;42.820;23.374;2023-05-21T01:26:39;13.05;;;6.40;;
31872;SDS011;22407;42.820;23.374;2023-05-21T01:29:09;15.45;;;6.72;;
31872;SDS011;22407;42.820;23.374;2023-05-21T01:31:44;14.20;;;7.10;;
31872;SDS011;22407;42.820;23.374;2023-05-21T01:34:11;14.40;;;6.80;;
31872;SDS011;22407;42.820;23.374;2023-05-21T01:36:39;13.55;;;6.82;;
31872;SDS011;22407;42.820;23.374;2023-05-21T01:39:06;14.15;;;7.28;;
31872;SDS011;22407;42.820;23.374;2023-05-21T01:41:34;14.93;;;6.80;;
31872;SDS011;22407;42.820;23.374;2023-05-21T01:44:00;12.57;;;6.77;;
31872;SDS011;22407;42.820;23.374;2023-05-21T01:46:28;13.52;;;6.80;;
31872;SDS011;22407;42.820;23.374;2023-05-21T01:48:54;13.98;;;7.57;;
31872;SDS011;22407;42.820;23.374;2023-05-21T01:51:20;12.95;;;6.68;;
31872;SDS011;22407;42.820;23.374;2023-05-21T01:53:45;12.00;;;7.00;;
31872;SDS011;22407;42.820;23.374;2023-05-21T01:56:10;12.73;;;6.57;;
31872;SDS011;22407;42.820;23.374;2023-05-21T01:58:36;14.43;;;6.90;;
31872;SDS011;22407;42.820;23.374;2023-05-21T02:01:02;13.20;;;7.13;;
31872;SDS011;22407;42.820;23.374;2023-05-21T02:03:28;15.38;;;7.07;;
31872;SDS011;22407;42.820;23.374;2023-05-21T02:05:55;13.05;;;6.03;;
31872;SDS011;22407;42.820;23.374;2023-05-21T02:08:20;14.73;;;6.40;;
31872;SDS011;22407;42.820;23.374;2023-05-21T02:10:47;12.93;;;6.55;;
31872;SDS011;22407;42.820;23.374;2023-05-21T02:13:12;14.07;;;7.17;;
31872;SDS011;22407;42.820;23.374;2023-05-21T02:15:38;12.77;;;6.90;;
31872;SDS011;22407;42.820;23.374;2023-05-21T02:18:04;13.90;;;6.80;;
31872;SDS011;22407;42.820;23.374;2023-05-21T02:20:29;12.87;;;6.20;;
31872;SDS011;22407;42.820;23.374;2023-05-21T02:22:55;12.82;;;6.88;;
31872;SDS011;22407;42.820;23.374;2023-05-21T02:25:21;13.63;;;7.33;;
31872;SDS011;22407;42.820;23.374;2023-05-21T02:27:46;15.10;;;6.90;;
31872;SDS011;22407;42.820;23.374;2023-05-21T02:30:12;12.38;;;6.55;;
31872;SDS011;22407;42.820;23.374;2023-05-21T02:32:38;14.43;;;6.87;;
31872;SDS011;22407;42.820;23.374;2023-05-21T02:35:11;12.35;;;6.50;;
31872;SDS011;22407;42.820;23.374;2023-05-21T02:37:37;12.98;;;7.03;;
31872;SDS011;22407;42.820;23.374;2023-05-21T02:40:04;13.38;;;7.10;;
31872;SDS011;22407;42.820;23.374;2023-05-21T02:42:30;12.27;;;6.30;;
31872;SDS011;22407;42.820;23.374;2023-05-21T02:44:55;13.13;;;7.00;;
31872;SDS011;22407;42.820;23.374;2023-05-21T02:47:20;12.23;;;6.30;;
31872;SDS011;22407;42.820;23.374;2023-05-21T02:49:48;12.50;;;6.80;;
31872;SDS011;22407;42.820;23.374;2023-05-21T02:52:13;13.27;;;6.63;;
31872;SDS011;22407;42.820;23.374;2023-05-21T02:54:38;15.10;;;7.23;;
31872;SDS011;22407;42.820;23.374;2023-05-21T02:57:04;12.07;;;6.93;;
31872;SDS011;22407;42.820;23.374;2023-05-21T02:59:29;16.25;;;7.20;;
31872;SDS011;22407;42.820;23.374;2023-05-21T03:01:55;16.87;;;6.77;;
31872;SDS011;22407;42.820;23.374;2023-05-21T03:04:20;13.50;;;6.60;;
31872;SDS011;22407;42.820;23.374;2023-05-21T03:06:49;14.30;;;6.60;;
31872;SDS011;22407;42.820;23.374;2023-05-21T03:09:19;13.10;;;6.75;;
31872;SDS011;22407;42.820;23.374;2023-05-21T03:11:45;17.52;;;7.78;;
31872;SDS011;22407;42.820;23.374;2023-05-21T03:14:10;13.67;;;6.87;;
31872;SDS011;22407;42.820;23.374;2023-05-21T03:16:36;14.90;;;6.90;;
31872;SDS011;22407;42.820;23.374;2023-05-21T03:19:02;14.60;;;6.87;;
31872;SDS011;22407;42.820;23.374;2023-05-21T03:21:27;19.33;;;6.95;;
31872;SDS011;22407;42.820;23.374;2023-05-21T03:23:54;13.53;;;7.10;;
31872;SDS011;22407;42.820;23.374;2023-05-21T03:26:22;15.05;;;7.18;;
31872;SDS011;22407;42.820;23.374;2023-05-21T03:28:48;15.13;;;7.57;;
31872;SDS011;22407;42.820;23.374;2023-05-21T03:31:13;12.63;;;6.70;;
31872;SDS011;22407;42.820;23.374;2023-05-21T03:33:39;15.77;;;7.47;;
31872;SDS011;22407;42.820;23.374;2023-05-21T03:36:04;13.07;;;6.97;;
31872;SDS011;22407;42.820;23.374;2023-05-21T03:38:30;13.90;;;7.57;;
31872;SDS011;22407;42.820;23.374;2023-05-21T03:40:55;14.83;;;7.37;;
31872;SDS011;22407;42.820;23.374;2023-05-21T03:43:20;15.00;;;7.47;;
31872;SDS011;22407;42.820;23.374;2023-05-21T03:45:45;15.97;;;7.70;;
31872;SDS011;22407;42.820;23.374;2023-05-21T03:48:11;13.27;;;7.37;;
31872;SDS011;22407;42.820;23.374;2023-05-21T03:50:36;13.60;;;7.50;;
31872;SDS011;22407;42.820;23.374;2023-05-21T03:53:01;14.50;;;7.60;;
31872;SDS011;22407;42.820;23.374;2023-05-21T03:55:27;15.53;;;7.50;;
31872;SDS011;22407;42.820;23.374;2023-05-21T03:57:53;16.45;;;8.07;;
31872;SDS011;22407;42.820;23.374;2023-05-21T04:00:18;13.73;;;7.27;;
31872;SDS011;22407;42.820;23.374;2023-05-21T04:02:43;14.53;;;7.20;;
31872;SDS011;22407;42.820;23.374;2023-05-21T04:05:09;15.90;;;7.57;;
31872;SDS011;22407;42.820;23.374;2023-05-21T04:07:34;12.67;;;7.13;;
31872;SDS011;22407;42.820;23.374;2023-05-21T04:10:02;15.13;;;8.00;;
31872;SDS011;22407;42.820;23.374;2023-05-21T04:12:27;13.90;;;7.82;;
31872;SDS011;22407;42.820;23.374;2023-05-21T04:14:53;16.33;;;7.93;;
31872;SDS011;22407;42.820;23.374;2023-05-21T04:17:18;14.40;;;7.97;;
31872;SDS011;22407;42.820;23.374;2023-05-21T04:19:44;14.45;;;7.55;;
31872;SDS011;22407;42.820;23.374;2023-05-21T04:22:10;13.83;;;7.50;;
31872;SDS011;22407;42.820;23.374;2023-05-21T04:24:36;14.40;;;7.45;;
31872;SDS011;22407;42.820;23.374;2023-05-21T04:27:02;15.70;;;7.10;;
31872;SDS011;22407;42.820;23.374;2023-05-21T04:29:27;16.87;;;7.67;;
31872;SDS011;22407;42.820;23.374;2023-05-21T04:31:53;15.13;;;8.27;;
31872;SDS011;22407;42.820;23.374;2023-05-21T04:34:19;15.00;;;7.97;;
31872;SDS011;22407;42.820;23.374;2023-05-21T04:36:44;16.02;;;7.50;;
31872;SDS011;22407;42.820;23.374;2023-05-21T04:39:13;14.43;;;8.00;;
31872;SDS011;22407;42.820;23.374;2023-05-21T04:41:38;15.52;;;8.07;;
31872;SDS011;22407;42.820;23.374;2023-05-21T04:44:06;16.50;;;8.20;;
31872;SDS011;22407;42.820;23.374;2023-05-21T04:46:31;13.98;;;7.15;;
31872;SDS011;22407;42.820;23.374;2023-05-21T04:48:56;15.40;;;7.93;;
31872;SDS011;22407;42.820;23.374;2023-05-21T04:51:26;14.18;;;7.50;;
31872;SDS011;22407;42.820;23.374;2023-05-21T04:53:52;14.40;;;7.53;;
31872;SDS011;22407;42.820;23.374;2023-05-21T04:56:17;16.23;;;7.97;;
31872;SDS011;22407;42.820;23.374;2023-05-21T04:58:43;14.30;;;7.40;;
31872;SDS011;22407;42.820;23.374;2023-05-21T05:01:09;17.60;;;7.77;;
31872;SDS011;22407;42.820;23.374;2023-05-21T05:03:34;17.48;;;8.18;;
31872;SDS011;22407;42.820;23.374;2023-05-21T05:06:00;17.13;;;8.27;;
31872;SDS011;22407;42.820;23.374;2023-05-21T05:08:28;19.55;;;8.48;;
31872;SDS011;22407;42.820;23.374;2023-05-21T05:10:53;17.33;;;8.50;;
31872;SDS011;22407;42.820;23.374;2023-05-21T05:13:18;18.60;;;7.90;;
31872;SDS011;22407;42.820;23.374;2023-05-21T05:15:44;18.50;;;9.37;;
31872;SDS011;22407;42.820;23.374;2023-05-21T05:18:10;17.83;;;8.85;;
31872;SDS011;22407;42.820;23.374;2023-05-21T05:20:36;20.10;;;8.90;;
31872;SDS011;22407;42.820;23.374;2023-05-21T05:23:01;15.77;;;8.93;;
31872;SDS011;22407;42.820;23.374;2023-05-21T05:25:26;17.03;;;8.80;;
31872;SDS011;22407;42.820;23.374;2023-05-21T05:27:52;16.20;;;8.40;;
31872;SDS011;22407;42.820;23.374;2023-05-21T05:30:17;17.88;;;9.35;;
31872;SDS011;22407;42.820;23.374;2023-05-21T05:32:42;16.00;;;7.93;;
31872;SDS011;22407;42.820;23.374;2023-05-21T05:35:08;15.27;;;7.97;;
31872;SDS011;22407;42.820;23.374;2023-05-21T05:37:33;17.93;;;8.90;;
31872;SDS011;22407;42.820;23.374;2023-05-21T05:39:58;15.17;;;8.40;;
31872;SDS011;22407;42.820;23.374;2023-05-21T05:42:24;15.43;;;8.27;;
31872;SDS011;22407;42.820;23.374;2023-05-21T05:44:49;16.53;;;8.77;;
31872;SDS011;22407;42.820;23.374;2023-05-21T05:47:14;15.00;;;8.70;;
31872;SDS011;22407;42.820;23.374;2023-05-21T05:49:40;18.52;;;8.07;;
31872;SDS011;22407;42.820;23.374;2023-05-21T05:52:05;17.67;;;9.40;;
31872;SDS011;22407;42.820;23.374;2023-05-21T05:54:30;17.07;;;9.03;;
31872;SDS011;22407;42.820;23.374;2023-05-21T05:56:56;13.43;;;8.20;;
31872;SDS011;22407;42.820;23.374;2023-05-21T05:59:21;15.60;;;8.57;;
31872;SDS011;22407;42.820;23.374;2023-05-21T06:01:46;15.67;;;8.00;;
31872;SDS011;22407;42.820;23.374;2023-05-21T06:04:12;16.07;;;8.90;;
31872;SDS011;22407;42.820;23.374;2023-05-21T06:06:37;15.73;;;8.57;;
31872;SDS011;22407;42.820;23.374;2023-05-21T06:09:02;14.27;;;8.07;;
31872;SDS011;22407;42.820;23.374;2023-05-21T06:11:28;14.80;;;8.33;;
31872;SDS011;22407;42.820;23.374;2023-05-21T06:13:53;13.00;;;6.57;;
31872;SDS011;22407;42.820;23.374;2023-05-21T06:16:18;12.33;;;6.43;;
31872;SDS011;22407;42.820;23.374;2023-05-21T06:18:44;15.70;;;6.60;;
31872;SDS011;22407;42.820;23.374;2023-05-21T06:21:12;13.23;;;6.43;;
31872;SDS011;22407;42.820;23.374;2023-05-21T06:23:37;11.83;;;6.53;;
31872;SDS011;22407;42.820;23.374;2023-05-21T06:26:03;11.27;;;6.30;;
31872;SDS011;22407;42.820;23.374;2023-05-21T06:28:28;12.27;;;6.30;;
31872;SDS011;22407;42.820;23.374;2023-05-21T06:30:53;10.77;;;6.00;;
31872;SDS011;22407;42.820;23.374;2023-05-21T06:33:18;12.23;;;6.13;;
31872;SDS011;22407;42.820;23.374;2023-05-21T06:35:44;13.43;;;5.87;;
31872;SDS011;22407;42.820;23.374;2023-05-21T06:38:09;12.00;;;5.83;;
31872;SDS011;22407;42.820;23.374;2023-05-21T06:40:34;10.47;;;5.53;;
31872;SDS011;22407;42.820;23.374;2023-05-21T06:43:00;11.10;;;5.70;;
31872;SDS011;22407;42.820;23.374;2023-05-21T06:45:25;13.27;;;5.50;;
31872;SDS011;22407;42.820;23.374;2023-05-21T06:47:50;10.43;;;5.57;;
31872;SDS011;22407;42.820;23.374;2023-05-21T06:50:16;12.33;;;5.80;;
31872;SDS011;22407;42.820;23.374;2023-05-21T06:52:41;11.57;;;5.73;;
31872;SDS011;22407;42.820;23.374;2023-05-21T06:55:06;12.60;;;6.00;;
31872;SDS011;22407;42.820;23.374;2023-05-21T06:57:32;11.90;;;5.87;;
31872;SDS011;22407;42.820;23.374;2023-05-21T06:59:57;11.60;;;5.73;;
31872;SDS011;22407;42.820;23.374;2023-05-21T07:02:22;11.80;;;5.83;;
31872;SDS011;22407;42.820;23.374;2023-05-21T07:04:48;9.13;;;5.05;;
31872;SDS011;22407;42.820;23.374;2023-05-21T07:07:13;16.47;;;7.07;;
31872;SDS011;22407;42.820;23.374;2023-05-21T07:09:38;18.50;;;7.00;;
31872;SDS011;22407;42.820;23.374;2023-05-21T07:12:04;10.80;;;5.13;;
31872;SDS011;22407;42.820;23.374;2023-05-21T07:14:29;10.30;;;4.20;;
31872;SDS011;22407;42.820;23.374;2023-05-21T07:16:54;10.40;;;4.40;;
31872;SDS011;22407;42.820;23.374;2023-05-21T07:19:20;10.73;;;4.73;;
31872;SDS011;22407;42.820;23.374;2023-05-21T07:21:45;12.00;;;4.57;;
31872;SDS011;22407;42.820;23.374;2023-05-21T07:24:10;8.30;;;4.00;;
31872;SDS011;22407;42.820;23.374;2023-05-21T07:26:36;13.33;;;4.30;;
31872;SDS011;22407;42.820;23.374;2023-05-21T07:29:01;12.57;;;4.57;;
31872;SDS011;22407;42.820;23.374;2023-05-21T07:31:27;9.43;;;4.40;;
31872;SDS011;22407;42.820;23.374;2023-05-21T07:33:52;10.33;;;4.47;;
31872;SDS011;22407;42.820;23.374;2023-05-21T07:36:17;10.27;;;4.40;;
31872;SDS011;22407;42.820;23.374;2023-05-21T07:38:43;9.67;;;5.00;;
31872;SDS011;22407;42.820;23.374;2023-05-21T07:41:08;9.47;;;4.30;;
31872;SDS011;22407;42.820;23.374;2023-05-21T07:43:34;7.87;;;4.03;;
31872;SDS011;22407;42.820;23.374;2023-05-21T07:45:59;10.93;;;4.15;;
31872;SDS011;22407;42.820;23.374;2023-05-21T07:48:25;11.20;;;4.40;;
31872;SDS011;22407;42.820;23.374;2023-05-21T07:50:51;21.33;;;4.88;;
31872;SDS011;22407;42.820;23.374;2023-05-21T07:53:16;12.33;;;4.40;;
31872;SDS011;22407;42.820;23.374;2023-05-21T07:55:42;13.23;;;4.47;;
31872;SDS011;22407;42.820;23.374;2023-05-21T07:58:13;9.85;;;4.15;;
31872;SDS011;22407;42.820;23.374;2023-05-21T08:00:41;9.77;;;3.83;;
31872;SDS011;22407;42.820;23.374;2023-05-21T08:03:07;8.70;;;3.78;;
31872;SDS011;22407;42.820;23.374;2023-05-21T08:05:33;12.27;;;4.50;;
31872;SDS011;22407;42.820;23.374;2023-05-21T08:07:58;15.50;;;4.17;;
31872;SDS011;22407;42.820;23.374;2023-05-21T08:10:24;11.88;;;4.15;;
31872;SDS011;22407;42.820;23.374;2023-05-21T08:12:49;10.93;;;4.77;;
31872;SDS011;22407;42.820;23.374;2023-05-21T08:15:15;10.23;;;4.50;;
31872;SDS011;22407;42.820;23.374;2023-05-21T08:17:40;10.18;;;4.35;;
31872;SDS011;22407;42.820;23.374;2023-05-21T08:20:06;9.17;;;4.50;;
31872;SDS011;22407;42.820;23.374;2023-05-21T08:22:31;10.00;;;4.97;;
31872;SDS011;22407;42.820;23.374;2023-05-21T08:24:56;10.35;;;4.75;;
31872;SDS011;22407;42.820;23.374;2023-05-21T08:27:22;11.47;;;4.93;;
31872;SDS011;22407;42.820;23.374;2023-05-21T08:29:47;8.83;;;4.20;;
31872;SDS011;22407;42.820;23.374;2023-05-21T08:32:12;10.63;;;5.00;;
31872;SDS011;22407;42.820;23.374;2023-05-21T08:34:37;8.70;;;4.57;;
31872;SDS011;22407;42.820;23.374;2023-05-21T08:37:03;10.93;;;4.57;;
31872;SDS011;22407;42.820;23.374;2023-05-21T08:39:28;11.07;;;5.00;;
31872;SDS011;22407;42.820;23.374;2023-05-21T08:41:54;9.17;;;4.90;;
31872;SDS011;22407;42.820;23.374;2023-05-21T08:44:21;9.68;;;4.80;;
31872;SDS011;22407;42.820;23.374;2023-05-21T08:46:49;11.40;;;4.93;;
31872;SDS011;22407;42.820;23.374;2023-05-21T08:49:15;10.82;;;4.72;;
31872;SDS011;22407;42.820;23.374;2023-05-21T08:51:41;10.83;;;4.60;;
31872;SDS011;22407;42.820;23.374;2023-05-21T08:54:08;12.75;;;4.50;;
31872;SDS011;22407;42.820;23.374;2023-05-21T08:56:34;9.63;;;4.28;;
31872;SDS011;22407;42.820;23.374;2023-05-21T08:59:00;9.90;;;3.90;;
31872;SDS011;22407;42.820;23.374;2023-05-21T09:01:26;8.82;;;4.35;;
31872;SDS011;22407;42.820;23.374;2023-05-21T09:03:51;11.60;;;4.03;;
31872;SDS011;22407;42.820;23.374;2023-05-21T09:06:17;11.63;;;4.47;;
31872;SDS011;22407;42.820;23.374;2023-05-21T09:08:43;10.17;;;4.30;;
31872;SDS011;22407;42.820;23.374;2023-05-21T09:11:12;10.48;;;4.50;;
31872;SDS011;22407;42.820;23.374;2023-05-21T09:13:38;11.10;;;4.28;;
31872;SDS011;22407;42.820;23.374;2023-05-21T09:16:04;14.13;;;4.13;;
31872;SDS011;22407;42.820;23.374;2023-05-21T09:18:29;8.43;;;4.40;;
31872;SDS011;22407;42.820;23.374;2023-05-21T09:20:55;10.67;;;4.33;;
31872;SDS011;22407;42.820;23.374;2023-05-21T09:23:20;10.63;;;4.57;;
31872;SDS011;22407;42.820;23.374;2023-05-21T09:25:46;10.07;;;4.87;;
31872;SDS011;22407;42.820;23.374;2023-05-21T09:28:13;11.52;;;4.25;;
31872;SDS011;22407;42.820;23.374;2023-05-21T09:30:45;10.23;;;4.60;;
31872;SDS011;22407;42.820;23.374;2023-05-21T09:33:11;9.25;;;4.55;;
31872;SDS011;22407;42.820;23.374;2023-05-21T09:35:42;10.47;;;4.77;;
31872;SDS011;22407;42.820;23.374;2023-05-21T09:38:08;8.57;;;4.40;;
31872;SDS011;22407;42.820;23.374;2023-05-21T09:40:33;10.50;;;3.83;;
31872;SDS011;22407;42.820;23.374;2023-05-21T09:42:58;12.03;;;4.50;;
31872;SDS011;22407;42.820;23.374;2023-05-21T09:45:25;10.03;;;4.27;;
31872;SDS011;22407;42.820;23.374;2023-05-21T09:47:51;10.07;;;4.50;;
31872;SDS011;22407;42.820;23.374;2023-05-21T09:50:21;8.82;;;4.13;;
31872;SDS011;22407;42.820;23.374;2023-05-21T09:52:46;11.20;;;4.32;;
31872;SDS011;22407;42.820;23.374;2023-05-21T09:55:12;11.00;;;4.20;;
31872;SDS011;22407;42.820;23.374;2023-05-21T09:57:47;16.77;;;5.47;;
31872;SDS011;22407;42.820;23.374;2023-05-21T10:00:19;11.20;;;4.90;;
31872;SDS011;22407;42.820;23.374;2023-05-21T10:02:45;12.02;;;4.15;;
31872;SDS011;22407;42.820;23.374;2023-05-21T10:05:12;8.93;;;4.45;;
31872;SDS011;22407;42.820;23.374;2023-05-21T10:07:38;14.10;;;4.78;;
31872;SDS011;22407;42.820;23.374;2023-05-21T10:10:05;8.97;;;4.33;;
31872;SDS011;22407;42.820;23.374;2023-05-21T10:12:31;11.55;;;5.13;;
31872;SDS011;22407;42.820;23.374;2023-05-21T10:14:58;11.15;;;4.75;;
31872;SDS011;22407;42.820;23.374;2023-05-21T10:17:25;9.30;;;4.43;;
31872;SDS011;22407;42.820;23.374;2023-05-21T10:19:51;9.60;;;4.28;;
31872;SDS011;22407;42.820;23.374;2023-05-21T10:22:18;10.07;;;4.93;;
31872;SDS011;22407;42.820;23.374;2023-05-21T10:24:44;11.13;;;4.50;;
31872;SDS011;22407;42.820;23.374;2023-05-21T10:27:09;8.93;;;4.50;;
31872;SDS011;22407;42.820;23.374;2023-05-21T10:29:36;11.25;;;4.95;;
31872;SDS011;22407;42.820;23.374;2023-05-21T10:32:02;10.45;;;4.70;;
31872;SDS011;22407;42.820;23.374;2023-05-21T10:34:27;9.07;;;4.30;;
31872;SDS011;22407;42.820;23.374;2023-05-21T10:36:53;13.00;;;4.63;;
31872;SDS011;22407;42.820;23.374;2023-05-21T10:39:19;9.07;;;3.80;;
31872;SDS011;22407;42.820;23.374;2023-05-21T10:41:50;10.07;;;4.28;;
31872;SDS011;22407;42.820;23.374;2023-05-21T10:44:32;10.27;;;4.75;;
31872;SDS011;22407;42.820;23.374;2023-05-21T10:49:49;15.32;;;4.70;;
31872;SDS011;22407;42.820;23.374;2023-05-21T10:52:21;14.43;;;4.63;;
31872;SDS011;22407;42.820;23.374;2023-05-21T10:57:57;11.85;;;5.20;;
31872;SDS011;22407;42.820;23.374;2023-05-21T11:00:26;10.57;;;4.20;;
31872;SDS011;22407;42.820;23.374;2023-05-21T11:02:52;12.60;;;4.60;;
31872;SDS011;22407;42.820;23.374;2023-05-21T11:08:01;8.07;;;4.10;;
31872;SDS011;22407;42.820;23.374;2023-05-21T11:10:39;7.97;;;3.90;;
31872;SDS011;22407;42.820;23.374;2023-05-21T11:13:12;8.02;;;4.07;;
31872;SDS011;22407;42.820;23.374;2023-05-21T11:18:21;10.03;;;4.07;;
31872;SDS011;22407;42.820;23.374;2023-05-21T11:20:50;11.98;;;4.60;;
31872;SDS011;22407;42.820;23.374;2023-05-21T11:23:15;9.98;;;4.82;;
31872;SDS011;22407;42.820;23.374;2023-05-21T11:25:40;9.43;;;3.60;;
31872;SDS011;22407;42.820;23.374;2023-05-21T11:28:06;11.83;;;4.27;;
31872;SDS011;22407;42.820;23.374;2023-05-21T11:30:33;9.03;;;4.50;;
31872;SDS011;22407;42.820;23.374;2023-05-21T11:38:20;8.45;;;4.68;;
31872;SDS011;22407;42.820;23.374;2023-05-21T11:40:54;9.93;;;4.53;;
31872;SDS011;22407;42.820;23.374;2023-05-21T11:43:19;8.73;;;4.70;;
31872;SDS011;22407;42.820;23.374;2023-05-21T11:45:45;11.17;;;4.67;;
31872;SDS011;22407;42.820;23.374;2023-05-21T11:48:14;7.70;;;4.35;;
31872;SDS011;22407;42.820;23.374;2023-05-21T11:50:40;10.40;;;4.07;;
31872;SDS011;22407;42.820;23.374;2023-05-21T11:53:06;9.32;;;4.40;;
31872;SDS011;22407;42.820;23.374;2023-05-21T11:55:33;9.87;;;4.20;;
31872;SDS011;22407;42.820;23.374;2023-05-21T11:58:02;9.27;;;3.72;;
31872;SDS011;22407;42.820;23.374;2023-05-21T12:00:28;10.23;;;5.00;;
31872;SDS011;22407;42.820;23.374;2023-05-21T12:02:54;10.80;;;4.73;;
31872;SDS011;22407;42.820;23.374;2023-05-21T12:05:20;10.65;;;5.80;;
31872;SDS011;22407;42.820;23.374;2023-05-21T12:07:46;10.67;;;5.40;;
31872;SDS011;22407;42.820;23.374;2023-05-21T12:10:12;10.10;;;4.28;;
31872;SDS011;22407;42.820;23.374;2023-05-21T12:12:38;12.00;;;4.20;;
31872;SDS011;22407;42.820;23.374;2023-05-21T12:15:03;9.30;;;4.53;;
31872;SDS011;22407;42.820;23.374;2023-05-21T12:17:29;7.78;;;4.40;;
31872;SDS011;22407;42.820;23.374;2023-05-21T12:19:55;9.10;;;4.47;;
31872;SDS011;22407;42.820;23.374;2023-05-21T12:22:21;9.87;;;5.20;;
31872;SDS011;22407;42.820;23.374;2023-05-21T12:24:48;12.57;;;4.43;;
31872;SDS011;22407;42.820;23.374;2023-05-21T12:27:14;11.57;;;4.37;;
31872;SDS011;22407;42.820;23.374;2023-05-21T12:29:44;10.27;;;4.10;;
31872;SDS011;22407;42.820;23.374;2023-05-21T12:32:10;9.57;;;4.30;;
31872;SDS011;22407;42.820;23.374;2023-05-21T12:37:03;7.47;;;3.65;;
31872;SDS011;22407;42.820;23.374;2023-05-21T12:39:29;9.30;;;4.35;;
31872;SDS011;22407;42.820;23.374;2023-05-21T12:41:55;9.18;;;4.57;;
31872;SDS011;22407;42.820;23.374;2023-05-21T12:44:20;10.67;;;4.90;;
31872;SDS011;22407;42.820;23.374;2023-05-21T12:46:45;12.20;;;5.07;;
31872;SDS011;22407;42.820;23.374;2023-05-21T12:49:33;8.20;;;4.70;;
31872;SDS011;22407;42.820;23.374;2023-05-21T12:51:56;10.35;;;4.35;;
31872;SDS011;22407;42.820;23.374;2023-05-21T12:54:27;10.23;;;4.53;;
31872;SDS011;22407;42.820;23.374;2023-05-21T12:56:52;10.88;;;4.65;;
31872;SDS011;22407;42.820;23.374;2023-05-21T12:59:20;8.98;;;4.10;;
31872;SDS011;22407;42.820;23.374;2023-05-21T13:01:46;10.90;;;4.87;;
31872;SDS011;22407;42.820;23.374;2023-05-21T13:04:11;11.07;;;4.18;;
31872;SDS011;22407;42.820;23.374;2023-05-21T13:06:40;15.27;;;4.30;;
31872;SDS011;22407;42.820;23.374;2023-05-21T13:09:05;10.27;;;4.38;;
31872;SDS011;22407;42.820;23.374;2023-05-21T13:11:31;8.10;;;4.53;;
31872;SDS011;22407;42.820;23.374;2023-05-21T13:13:56;8.57;;;3.90;;
31872;SDS011;22407;42.820;23.374;2023-05-21T13:16:21;8.60;;;3.60;;
31872;SDS011;22407;42.820;23.374;2023-05-21T13:18:47;9.02;;;3.80;;
31872;SDS011;22407;42.820;23.374;2023-05-21T13:21:12;9.90;;;4.00;;
31872;SDS011;22407;42.820;23.374;2023-05-21T13:23:38;9.07;;;4.40;;
31872;SDS011;22407;42.820;23.374;2023-05-21T13:26:03;8.50;;;4.10;;
31872;SDS011;22407;42.820;23.374;2023-05-21T13:28:28;10.37;;;4.10;;
31872;SDS011;22407;42.820;23.374;2023-05-21T13:30:54;10.33;;;5.10;;
31872;SDS011;22407;42.820;23.374;2023-05-21T13:33:20;9.85;;;5.15;;
31872;SDS011;22407;42.820;23.374;2023-05-21T13:35:46;10.05;;;4.82;;
31872;SDS011;22407;42.820;23.374;2023-05-21T13:38:15;13.88;;;5.40;;
31872;SDS011;22407;42.820;23.374;2023-05-21T13:40:40;12.17;;;5.30;;
31872;SDS011;22407;42.820;23.374;2023-05-21T13:43:05;10.40;;;4.73;;
31872;SDS011;22407;42.820;23.374;2023-05-21T13:45:30;9.47;;;4.37;;
31872;SDS011;22407;42.820;23.374;2023-05-21T13:47:56;17.47;;;5.40;;
31872;SDS011;22407;42.820;23.374;2023-05-21T13:50:21;10.37;;;4.60;;
31872;SDS011;22407;42.820;23.374;2023-05-21T13:52:47;8.63;;;4.13;;
31872;SDS011;22407;42.820;23.374;2023-05-21T13:55:12;11.80;;;5.00;;
31872;SDS011;22407;42.820;23.374;2023-05-21T13:57:39;9.37;;;4.70;;
31872;SDS011;22407;42.820;23.374;2023-05-21T14:00:05;9.70;;;4.68;;
31872;SDS011;22407;42.820;23.374;2023-05-21T14:02:33;10.23;;;4.47;;
31872;SDS011;22407;42.820;23.374;2023-05-21T14:04:58;10.60;;;4.13;;
31872;SDS011;22407;42.820;23.374;2023-05-21T14:07:23;11.87;;;4.47;;
31872;SDS011;22407;42.820;23.374;2023-05-21T14:09:49;12.00;;;4.80;;
31872;SDS011;22407;42.820;23.374;2023-05-21T14:12:14;14.13;;;5.17;;
31872;SDS011;22407;42.820;23.374;2023-05-21T14:14:40;9.20;;;4.10;;
31872;SDS011;22407;42.820;23.374;2023-05-21T14:17:06;13.17;;;4.87;;
31872;SDS011;22407;42.820;23.374;2023-05-21T14:19:31;9.17;;;4.13;;
31872;SDS011;22407;42.820;23.374;2023-05-21T14:21:56;10.03;;;4.30;;
31872;SDS011;22407;42.820;23.374;2023-05-21T14:24:23;10.93;;;4.38;;
31872;SDS011;22407;42.820;23.374;2023-05-21T14:26:49;9.60;;;4.10;;
31872;SDS011;22407;42.820;23.374;2023-05-21T14:29:14;10.77;;;4.27;;
31872;SDS011;22407;42.820;23.374;2023-05-21T14:31:39;10.30;;;4.27;;
31872;SDS011;22407;42.820;23.374;2023-05-21T14:34:04;10.30;;;4.80;;
31872;SDS011;22407;42.820;23.374;2023-05-21T14:36:33;8.20;;;4.45;;